»·PEaware :: N264DS KPMD-KRNM

N264DS :: KPMD-KRNM

FLIGHT INFORMATION

Flight Status: Arrived
Operator: Privately registered:
United States
More flights under this callsign
Pilot: Marc A. (29724)
Aircraft: DIAMOND DA-42 TWINSTAR
(DA42)
More flights by this aircraft type
Origin: KPMD Palmdale AF Plant 42
United States
Destination: KRNM Ramona
United States
More flights between these airports :: More routes between these airports
Route: VNY NAPHA
File this flight plan on PilotEdge
Remarks:
Altitude:
(Current/Filed)
9,500ft
Speed:
(Current/Filed)
150kts
Departed: 09-May-21 12:00 PM
Arrived: 09-May-21 12:48 PM
Distance/Time
Traveled:
112nm/0:47
Distance/Time
To Go:
Arrived

Flight Plot

Page will automatically refresh every two minutes.

Flight plan parsing failed; only flown route is shown


Map Options




Map Legend


Flown Route
Filed Route
Departure Airport
Arrival Airport
Navaid (VOR, NDB)
Fix

Horizontal Profiles

Position Reports

Time Latitude Longitude Heading Altitude Ground
Speed
09-May-21 11:58 34.531413 -118.177092 237 6126ft 138kts
09-May-21 11:59 34.504686 -118.210175 224 7141ft 135kts
09-May-21 12:00 34.476218 -118.238910 223 8235ft 132kts
09-May-21 12:01 34.448083 -118.266796 223 9327ft 130kts
09-May-21 12:02 34.415552 -118.299938 223 9561ft 174kts
09-May-21 12:03 34.377035 -118.338437 219 9538ft 185kts
09-May-21 12:04 34.336589 -118.377109 221 9545ft 185kts
09-May-21 12:05 34.296964 -118.416775 221 9535ft 184kts
09-May-21 12:06 34.257614 -118.456090 221 9529ft 183kts
09-May-21 12:07 34.213243 -118.482529 170 9532ft 188kts
09-May-21 12:08 34.166001 -118.455100 158 9530ft 189kts
09-May-21 12:09 34.120878 -118.427376 161 9499ft 166kts
09-May-21 12:10 34.075919 -118.403536 149 9536ft 186kts
09-May-21 12:11 34.030022 -118.373225 152 9521ft 189kts
09-May-21 12:12 33.983132 -118.344568 152 9521ft 189kts
09-May-21 12:13 33.936598 -118.316192 149 9525ft 188kts
09-May-21 12:14 33.890015 -118.289136 160 9521ft 186kts
09-May-21 12:15 33.845477 -118.260786 149 9523ft 179kts
09-May-21 12:16 33.800097 -118.236800 148 9526ft 178kts
09-May-21 12:17 33.757565 -118.207799 155 9525ft 174kts
09-May-21 12:18 33.713821 -118.181254 155 9526ft 177kts
09-May-21 12:19 33.669776 -118.154798 155 9526ft 177kts
09-May-21 12:20 33.625626 -118.128260 155 9526ft 178kts
09-May-21 12:21 33.581280 -118.101845 155 9526ft 178kts
09-May-21 12:22 33.536962 -118.075354 154 9526ft 178kts
09-May-21 12:23 33.509963 -118.026331 116 9527ft 180kts
09-May-21 12:24 33.487014 -117.972448 116 9527ft 181kts
09-May-21 12:25 33.464344 -117.918306 116 9527ft 181kts
09-May-21 12:26 33.441800 -117.864346 116 9527ft 181kts
09-May-21 12:27 33.418904 -117.810356 116 9529ft 181kts
09-May-21 12:28 33.400748 -117.760629 112 9524ft 150kts
09-May-21 12:29 33.378316 -117.716285 122 9541ft 174kts
09-May-21 12:30 33.355141 -117.662313 115 9536ft 186kts
09-May-21 12:31 33.332197 -117.606719 116 9536ft 185kts
09-May-21 12:32 33.309036 -117.551598 116 9535ft 185kts
09-May-21 12:33 33.285990 -117.496857 116 9534ft 184kts
09-May-21 12:34 33.262906 -117.441982 116 9532ft 185kts
09-May-21 12:35 33.240251 -117.386562 115 9530ft 185kts
09-May-21 12:36 33.218087 -117.331572 102 9529ft 182kts
09-May-21 12:37 33.205437 -117.272812 102 9527ft 182kts
09-May-21 12:38 33.192592 -117.213853 102 9408ft 186kts
09-May-21 12:39 33.179658 -117.154323 102 9010ft 184kts
09-May-21 12:40 33.166709 -117.094237 102 8447ft 188kts
09-May-21 12:41 33.154133 -117.033634 102 7852ft 188kts
09-May-21 12:42 33.138381 -116.973819 119 6820ft 192kts
09-May-21 12:43 33.103693 -116.931007 161 5022ft 175kts
09-May-21 12:44 33.059690 -116.916501 145 3277ft 160kts
09-May-21 12:45 33.048544 -116.881150 193 2250ft 99kts
09-May-21 12:46 33.037446 -116.903407 281 1614ft 77kts
09-May-21 12:47 33.040182 -116.919915 350 1392ft 9kts
09-May-21 12:48 33.040352 -116.918621 101 1392ft 23kts
09-May-21 12:49 33.040843 -116.913719 98 1393ft 0kts

Navigation Log

Ident Type
Flight plan parsing failed, navigation log unavailable